Time;durP1;ratioP1;P1;durP2;ratioP2;P2;SDS_P1;SDS_P2;PMS_P1;PMS_P2;Temp;Humidity;BMP_temperature;BMP_pressure;BME280_temperature;BME280_humidity;BME280_pressure;Samples;Min_cycle;Max_cycle;Signal;HPM_P1;HPM_P2
2022/08/13 00:00:32;;;;;;;;;;;17.50;99.90;;;;;;4227941;28;20343;-67
2022/08/13 00:02:33;;;;;;;;;;;17.40;99.90;;;;;;4232149;28;19904;-64
2022/08/13 00:04:34;;;;;;;;;;;17.30;99.90;;;;;;4230885;28;19915;-63
2022/08/13 00:08:37;;;;;;;;;;;17.20;99.90;;;;;;4231035;28;20335;-65
2022/08/13 00:10:38;;;;;;;;;;;17.20;99.90;;;;;;4232227;28;19903;-62
2022/08/13 00:13:00;;;;;;;;;;;17.10;99.90;;;;;;4212217;28;19901;-62
2022/08/13 00:15:08;;;;;;;;;;;17.10;99.90;;;;;;4230060;28;19924;-61
2022/08/13 00:17:12;;;;;;;;;;;17.10;99.90;;;;;;4229371;28;19903;-61
2022/08/13 00:19:13;;;;;;;;;;;17.00;99.90;;;;;;4230070;28;20717;-62
2022/08/13 00:21:14;;;;;;;;;;;17.10;99.90;;;;;;4229825;28;19966;-63
2022/08/13 00:23:16;;;;;;;;;;;17.10;99.90;;;;;;4230783;28;19912;-63
2022/08/13 00:25:19;;;;;;;;;;;17.10;99.90;;;;;;4231049;28;20395;-63
2022/08/13 00:27:22;;;;;;;;;;;17.10;99.90;;;;;;4230985;28;20329;-62
2022/08/13 00:29:25;;;;;;;;;;;17.00;99.90;;;;;;4231175;28;20332;-67
2022/08/13 00:31:26;;;;;;;;;;;16.80;99.90;;;;;;4230218;27;19934;-68
2022/08/13 00:33:27;;;;;;;;;;;16.70;99.90;;;;;;4230442;28;19956;-67
2022/08/13 00:35:29;;;;;;;;;;;16.60;99.90;;;;;;4230548;28;20750;-62
2022/08/13 00:37:30;;;;;;;;;;;16.60;99.90;;;;;;4231373;28;19907;-63
2022/08/13 00:39:31;;;;;;;;;;;16.50;99.90;;;;;;4230810;28;19904;-63
2022/08/13 00:41:38;;;;;;;;;;;16.50;99.90;;;;;;4231417;28;20025;-64
2022/08/13 00:43:39;;;;;;;;;;;16.50;99.90;;;;;;4230124;28;19915;-64
2022/08/13 00:45:40;;;;;;;;;;;16.50;99.90;;;;;;4231323;28;19969;-62
2022/08/13 00:50:03;;;;;;;;;;;16.50;99.90;;;;;;4231315;28;19953;-62
2022/08/13 00:52:07;;;;;;;;;;;16.50;99.90;;;;;;4229834;28;19907;-62
2022/08/13 00:54:13;;;;;;;;;;;16.50;99.90;;;;;;4231262;28;19904;-63
2022/08/13 00:56:14;;;;;;;;;;;16.40;99.90;;;;;;4229390;28;19904;-63
2022/08/13 00:58:16;;;;;;;;;;;16.40;99.90;;;;;;4231264;28;20399;-63
2022/08/13 01:00:19;;;;;;;;;;;16.40;99.90;;;;;;4230059;28;19900;-62
2022/08/13 01:02:21;;;;;;;;;;;16.40;99.90;;;;;;4230828;28;19912;-63
2022/08/13 01:04:23;;;;;;;;;;;16.40;99.90;;;;;;4230062;28;19964;-63
2022/08/13 01:06:24;;;;;;;;;;;16.40;99.90;;;;;;4230277;28;19904;-65
2022/08/13 01:08:26;;;;;;;;;;;16.40;99.90;;;;;;4229498;28;19900;-62
2022/08/13 01:10:27;;;;;;;;;;;16.30;99.90;;;;;;4230477;28;19949;-61
2022/08/13 01:12:28;;;;;;;;;;;16.30;99.90;;;;;;4229739;27;20317;-65
2022/08/13 01:14:32;;;;;;;;;;;16.30;99.90;;;;;;4229753;28;19904;-62
2022/08/13 01:16:36;;;;;;;;;;;16.30;99.90;;;;;;4230773;28;20312;-62
2022/08/13 01:18:40;;;;;;;;;;;16.30;99.90;;;;;;4229625;28;19907;-65
2022/08/13 01:20:48;;;;;;;;;;;16.20;99.90;;;;;;4230880;28;19904;-63
2022/08/13 01:22:51;;;;;;;;;;;16.20;99.90;;;;;;4229540;28;19945;-61
2022/08/13 01:24:52;;;;;;;;;;;16.20;99.90;;;;;;4230607;28;19915;-65
2022/08/13 01:26:53;;;;;;;;;;;16.20;99.90;;;;;;4229448;28;20008;-61
2022/08/13 01:28:54;;;;;;;;;;;16.20;99.90;;;;;;4229918;27;20002;-61
2022/08/13 01:30:56;;;;;;;;;;;16.30;99.90;;;;;;4229375;28;19904;-62
2022/08/13 01:32:58;;;;;;;;;;;16.30;99.90;;;;;;4230582;28;19908;-63
2022/08/13 01:35:00;;;;;;;;;;;16.40;99.90;;;;;;4228883;27;19953;-67
2022/08/13 01:37:01;;;;;;;;;;;16.40;99.90;;;;;;4230336;28;19907;-62
2022/08/13 01:39:05;;;;;;;;;;;16.40;99.90;;;;;;4229891;28;19904;-66
2022/08/13 01:41:10;;;;;;;;;;;16.40;99.90;;;;;;4230108;28;19904;-64
2022/08/13 01:43:11;;;;;;;;;;;16.40;99.90;;;;;;4228275;28;19908;-63
2022/08/13 01:45:13;;;;;;;;;;;16.40;99.90;;;;;;4229602;28;19903;-64
2022/08/13 01:52:05;;;;;;;;;;;16.30;99.90;;;;;;4229082;28;19945;-64
2022/08/13 01:54:06;;;;;;;;;;;16.20;99.90;;;;;;4229769;28;20355;-63
2022/08/13 01:56:08;;;;;;;;;;;16.20;99.90;;;;;;4229428;28;19904;-62
2022/08/13 01:58:11;;;;;;;;;;;16.10;99.90;;;;;;4229397;28;19988;-64
2022/08/13 02:00:13;;;;;;;;;;;16.10;99.90;;;;;;4229706;28;19953;-62
2022/08/13 02:02:14;;;;;;;;;;;16.00;99.90;;;;;;4228994;28;19957;-62
2022/08/13 02:04:15;;;;;;;;;;;16.00;99.90;;;;;;4229577;28;20367;-63
2022/08/13 02:06:23;;;;;;;;;;;16.00;99.90;;;;;;4228819;28;19972;-61
2022/08/13 02:08:26;;;;;;;;;;;16.00;99.90;;;;;;4230158;28;19969;-66
2022/08/13 02:10:27;;;;;;;;;;;16.00;99.90;;;;;;4229304;28;20329;-62
2022/08/13 02:12:28;;;;;;;;;;;16.10;99.90;;;;;;4229951;28;19964;-63
2022/08/13 02:14:30;;;;;;;;;;;16.10;99.90;;;;;;4228506;28;19907;-67
2022/08/13 02:16:31;;;;;;;;;;;16.10;99.90;;;;;;4229822;28;19957;-62
2022/08/13 02:18:32;;;;;;;;;;;16.10;99.90;;;;;;4228811;28;19928;-62
2022/08/13 02:20:35;;;;;;;;;;;16.10;99.90;;;;;;4229683;28;19912;-62
2022/08/13 02:22:36;;;;;;;;;;;16.00;99.90;;;;;;4228388;28;19988;-64
2022/08/13 02:24:38;;;;;;;;;;;16.00;99.90;;;;;;4228855;28;19919;-63
2022/08/13 02:26:39;;;;;;;;;;;16.00;99.90;;;;;;4228778;28;20355;-64
2022/08/13 02:28:40;;;;;;;;;;;16.00;99.90;;;;;;4228822;28;19912;-63
2022/08/13 02:30:41;;;;;;;;;;;15.90;99.90;;;;;;4228962;28;19903;-62
2022/08/13 02:32:42;;;;;;;;;;;15.90;99.90;;;;;;4228900;28;19984;-63
2022/08/13 02:34:45;;;;;;;;;;;15.90;99.90;;;;;;4229196;28;19904;-63
2022/08/13 02:36:47;;;;;;;;;;;15.90;99.90;;;;;;4228261;28;20264;-63
2022/08/13 02:39:02;;;;;;;;;;;15.90;99.90;;;;;;4229502;28;19949;-62
2022/08/13 02:43:24;;;;;;;;;;;16.00;99.90;;;;;;4228950;28;19960;-65
2022/08/13 02:45:26;;;;;;;;;;;15.90;99.90;;;;;;4228253;28;19933;-64
2022/08/13 02:47:28;;;;;;;;;;;15.90;99.90;;;;;;4229195;28;19907;-64
2022/08/13 02:49:30;;;;;;;;;;;15.90;99.90;;;;;;4228217;28;19908;-67
2022/08/13 02:51:31;;;;;;;;;;;15.90;99.90;;;;;;4229204;28;20354;-65
2022/08/13 02:53:32;;;;;;;;;;;15.90;99.90;;;;;;4226295;28;19941;-64
2022/08/13 02:55:33;;;;;;;;;;;15.80;99.90;;;;;;4229121;28;20044;-63
2022/08/13 02:57:34;;;;;;;;;;;15.80;99.90;;;;;;4227631;28;19907;-62
2022/08/13 02:59:36;;;;;;;;;;;15.80;99.90;;;;;;4229180;28;20002;-63
2022/08/13 03:01:38;;;;;;;;;;;15.80;99.90;;;;;;4228115;28;20320;-62
2022/08/13 03:03:40;;;;;;;;;;;15.70;99.90;;;;;;4229159;28;19908;-66
2022/08/13 03:05:41;;;;;;;;;;;15.70;99.90;;;;;;4227579;28;19912;-63
2022/08/13 03:07:43;;;;;;;;;;;15.70;99.90;;;;;;4228574;28;19907;-61
2022/08/13 03:09:45;;;;;;;;;;;15.80;99.90;;;;;;4228517;28;20264;-64
2022/08/13 03:11:47;;;;;;;;;;;15.80;99.90;;;;;;4228549;28;20317;-63
2022/08/13 03:13:51;;;;;;;;;;;15.80;99.90;;;;;;4226963;28;19912;-62
2022/08/13 03:15:53;;;;;;;;;;;15.80;99.90;;;;;;4226465;28;19912;-62
2022/08/13 03:17:54;;;;;;;;;;;15.80;99.90;;;;;;4228481;28;19903;-65
2022/08/13 03:19:55;;;;;;;;;;;15.80;99.90;;;;;;4227322;28;20272;-63
2022/08/13 03:21:57;;;;;;;;;;;15.90;99.90;;;;;;4228651;28;20452;-62
2022/08/13 03:23:59;;;;;;;;;;;15.90;99.90;;;;;;4225622;28;19961;-63
2022/08/13 03:26:00;;;;;;;;;;;16.00;99.90;;;;;;4229016;28;19911;-63
2022/08/13 03:28:01;;;;;;;;;;;16.00;99.90;;;;;;4227714;28;19904;-63
2022/08/13 03:30:03;;;;;;;;;;;16.00;99.90;;;;;;4228344;28;19976;-62
2022/08/13 03:32:04;;;;;;;;;;;16.10;99.90;;;;;;4227791;28;19904;-63
2022/08/13 03:34:04;;;;;;;;;;;16.10;99.90;;;;;;4228845;28;19953;-66
2022/08/13 03:36:06;;;;;;;;;;;16.10;99.90;;;;;;4226701;28;19929;-62
2022/08/13 03:38:09;;;;;;;;;;;16.10;99.90;;;;;;4228649;28;19904;-63
2022/08/13 03:40:10;;;;;;;;;;;16.30;99.90;;;;;;4227843;28;19957;-62
2022/08/13 03:42:11;;;;;;;;;;;16.30;99.90;;;;;;4228140;28;19960;-62
2022/08/13 03:44:12;;;;;;;;;;;16.50;99.90;;;;;;4227807;28;19998;-63
2022/08/13 03:46:16;;;;;;;;;;;16.60;99.90;;;;;;4227427;28;19912;-63
2022/08/13 03:48:17;;;;;;;;;;;16.90;99.90;;;;;;4228209;28;20343;-63
2022/08/13 03:50:18;;;;;;;;;;;17.20;99.90;;;;;;4225980;28;19908;-62
2022/08/13 03:52:20;;;;;;;;;;;17.50;99.90;;;;;;4227750;28;20260;-63
2022/08/13 03:54:21;;;;;;;;;;;17.80;99.90;;;;;;4227436;28;19952;-65
2022/08/13 03:56:23;;;;;;;;;;;18.10;99.90;;;;;;4228564;28;19908;-68
2022/08/13 03:58:26;;;;;;;;;;;18.40;99.90;;;;;;4227105;28;19956;-64
2022/08/13 04:00:28;;;;;;;;;;;18.50;99.90;;;;;;4228827;28;20355;-62
2022/08/13 04:02:29;;;;;;;;;;;18.90;99.90;;;;;;4227472;28;19911;-66
2022/08/13 04:04:30;;;;;;;;;;;18.90;99.90;;;;;;4228078;28;20322;-66
2022/08/13 04:06:31;;;;;;;;;;;19.00;99.90;;;;;;4226861;28;19903;-63
2022/08/13 04:08:34;;;;;;;;;;;19.00;99.90;;;;;;4228240;28;19918;-63
2022/08/13 04:10:36;;;;;;;;;;;19.00;99.90;;;;;;4226240;28;19934;-62
2022/08/13 04:12:37;;;;;;;;;;;19.20;99.90;;;;;;4228232;28;19961;-66
2022/08/13 04:14:42;;;;;;;;;;;19.50;99.90;;;;;;4226923;28;19992;-63
2022/08/13 04:16:42;;;;;;;;;;;19.70;99.90;;;;;;4227696;28;19908;-61
2022/08/13 04:18:45;;;;;;;;;;;19.90;99.90;;;;;;4227771;28;19899;-64
2022/08/13 04:20:53;;;;;;;;;;;20.10;99.90;;;;;;4227761;28;19911;-61
2022/08/13 04:22:54;;;;;;;;;;;20.10;99.90;;;;;;4227000;28;20416;-62
2022/08/13 04:24:55;;;;;;;;;;;20.20;99.90;;;;;;4226760;28;19916;-62
2022/08/13 04:26:58;;;;;;;;;;;20.30;99.90;;;;;;4226191;28;19962;-61
2022/08/13 04:29:01;;;;;;;;;;;20.60;99.90;;;;;;4225601;28;19911;-62
2022/08/13 04:31:02;;;;;;;;;;;21.00;99.90;;;;;;4227940;28;20363;-63
2022/08/13 04:33:03;;;;;;;;;;;21.40;99.90;;;;;;4227252;28;20002;-67
2022/08/13 04:35:04;;;;;;;;;;;21.90;99.90;;;;;;4228313;28;19910;-63
2022/08/13 04:37:07;;;;;;;;;;;22.30;99.90;;;;;;4226936;28;20313;-68
2022/08/13 04:39:08;;;;;;;;;;;22.70;99.50;;;;;;4228452;28;19907;-63
2022/08/13 04:41:09;;;;;;;;;;;22.60;98.40;;;;;;4227444;28;20269;-63
2022/08/13 04:43:11;;;;;;;;;;;22.90;98.30;;;;;;4227841;28;20416;-62
2022/08/13 04:45:13;;;;;;;;;;;23.40;97.80;;;;;;4226989;28;19912;-66
2022/08/13 04:47:14;;;;;;;;;;;24.00;96.90;;;;;;4229588;28;19908;-62
2022/08/13 04:49:15;;;;;;;;;;;24.30;96.00;;;;;;4228446;28;20876;-62
2022/08/13 04:51:16;;;;;;;;;;;24.60;95.30;;;;;;4230703;28;20383;-66
2022/08/13 04:53:23;;;;;;;;;;;24.90;94.90;;;;;;4230514;28;19907;-63
2022/08/13 04:55:24;;;;;;;;;;;25.00;94.50;;;;;;4230392;28;19908;-66
2022/08/13 04:57:25;;;;;;;;;;;25.20;94.20;;;;;;4230807;28;19908;-63
2022/08/13 04:59:26;;;;;;;;;;;25.30;93.80;;;;;;4228654;28;19908;-64
2022/08/13 05:01:27;;;;;;;;;;;25.50;92.90;;;;;;4230433;28;20355;-67
2022/08/13 05:03:29;;;;;;;;;;;25.70;92.20;;;;;;4229171;28;19943;-66
2022/08/13 05:05:30;;;;;;;;;;;26.20;91.90;;;;;;4230381;28;19986;-64
2022/08/13 05:07:32;;;;;;;;;;;26.60;91.10;;;;;;4228396;27;19908;-62
2022/08/13 05:09:33;;;;;;;;;;;27.10;90.40;;;;;;4230570;27;19903;-68
2022/08/13 05:11:33;;;;;;;;;;;27.50;89.50;;;;;;4228934;28;19961;-65
2022/08/13 05:13:36;;;;;;;;;;;27.80;88.70;;;;;;4230145;28;19910;-64
2022/08/13 05:15:39;;;;;;;;;;;28.10;85.70;;;;;;4228019;28;20360;-64
2022/08/13 05:17:41;;;;;;;;;;;28.10;85.40;;;;;;4230069;28;19912;-63
2022/08/13 05:19:42;;;;;;;;;;;28.30;84.80;;;;;;4228334;28;20424;-62
2022/08/13 05:21:43;;;;;;;;;;;28.60;84.00;;;;;;4229374;28;20026;-62
2022/08/13 05:23:44;;;;;;;;;;;28.70;82.20;;;;;;4228682;28;20413;-62
2022/08/13 05:25:45;;;;;;;;;;;28.70;82.60;;;;;;4228834;28;19951;-66
2022/08/13 05:27:46;;;;;;;;;;;28.60;81.10;;;;;;4229475;28;19957;-63
2022/08/13 05:29:47;;;;;;;;;;;28.80;80.70;;;;;;4229243;28;20317;-63
2022/08/13 05:31:49;;;;;;;;;;;29.10;80.00;;;;;;4229715;28;19929;-64
2022/08/13 05:33:50;;;;;;;;;;;29.30;78.60;;;;;;4228850;28;19904;-65
2022/08/13 05:35:53;;;;;;;;;;;29.60;78.00;;;;;;4229849;28;19954;-64
2022/08/13 05:37:54;;;;;;;;;;;29.70;77.20;;;;;;4228335;28;19907;-65
2022/08/13 05:39:55;;;;;;;;;;;29.90;76.70;;;;;;4228678;27;19904;-62
2022/08/13 05:41:56;;;;;;;;;;;30.00;75.80;;;;;;4227656;28;19904;-62
2022/08/13 05:43:57;;;;;;;;;;;29.90;75.60;;;;;;4229403;28;19907;-64
2022/08/13 05:45:59;;;;;;;;;;;30.00;75.20;;;;;;4227610;28;19911;-62
2022/08/13 05:48:00;;;;;;;;;;;29.60;75.40;;;;;;4229347;28;19981;-64
2022/08/13 05:50:01;;;;;;;;;;;29.30;75.70;;;;;;4228108;28;19907;-64
2022/08/13 05:52:02;;;;;;;;;;;28.90;74.90;;;;;;4228325;28;19915;-63
2022/08/13 05:54:03;;;;;;;;;;;29.10;75.50;;;;;;4228273;28;19907;-61
2022/08/13 05:56:04;;;;;;;;;;;29.30;75.60;;;;;;4229093;28;19950;-66
2022/08/13 05:58:07;;;;;;;;;;;29.60;74.60;;;;;;4228535;28;19966;-61
2022/08/13 06:04:48;;;;;;;;;;;30.40;73.50;;;;;;4229407;28;19968;-65
2022/08/13 06:06:50;;;;;;;;;;;30.70;71.70;;;;;;4213594;28;19908;-65
2022/08/13 06:08:56;;;;;;;;;;;30.60;71.90;;;;;;4212264;28;19973;-66
2022/08/13 06:11:00;;;;;;;;;;;30.60;71.10;;;;;;4213476;28;20344;-64
2022/08/13 06:13:01;;;;;;;;;;;30.70;71.20;;;;;;4211618;28;19904;-65
2022/08/13 06:15:02;;;;;;;;;;;30.60;70.80;;;;;;4212807;28;20470;-68
2022/08/13 06:17:03;;;;;;;;;;;30.70;70.80;;;;;;4212044;28;19908;-64
2022/08/13 06:19:05;;;;;;;;;;;31.00;70.80;;;;;;4212563;28;19927;-66
2022/08/13 06:21:10;;;;;;;;;;;30.70;70.80;;;;;;4210817;28;19950;-63
2022/08/13 06:23:12;;;;;;;;;;;30.50;70.40;;;;;;4229765;28;20321;-65
2022/08/13 06:25:15;;;;;;;;;;;30.90;71.00;;;;;;4228524;27;19956;-63
2022/08/13 06:27:16;;;;;;;;;;;30.80;70.40;;;;;;4230119;27;20021;-65
2022/08/13 06:29:18;;;;;;;;;;;30.60;70.20;;;;;;4228627;28;20347;-68
2022/08/13 06:31:25;;;;;;;;;;;30.80;71.30;;;;;;4229844;27;19933;-64
2022/08/13 06:33:27;;;;;;;;;;;31.20;71.10;;;;;;4228210;28;19976;-65
2022/08/13 06:35:28;;;;;;;;;;;31.30;70.00;;;;;;4228606;27;19916;-67
2022/08/13 06:37:29;;;;;;;;;;;31.00;70.30;;;;;;4228520;28;19972;-65
2022/08/13 06:39:31;;;;;;;;;;;30.90;72.00;;;;;;4228722;28;19908;-63
2022/08/13 06:41:33;;;;;;;;;;;31.10;71.30;;;;;;4229431;27;19899;-66
2022/08/13 06:43:35;;;;;;;;;;;31.50;71.30;;;;;;4227206;28;19907;-69
2022/08/13 06:45:37;;;;;;;;;;;31.60;70.90;;;;;;4238841;27;19923;-65
2022/08/13 06:47:38;;;;;;;;;;;31.80;70.90;;;;;;4245017;27;20351;-68
2022/08/13 06:49:39;;;;;;;;;;;32.00;70.80;;;;;;4244761;27;19937;-62
2022/08/13 06:51:42;;;;;;;;;;;31.90;70.50;;;;;;4242807;27;19911;-70
2022/08/13 06:53:44;;;;;;;;;;;31.90;70.70;;;;;;4245855;27;20377;-68
2022/08/13 06:55:48;;;;;;;;;;;32.00;70.80;;;;;;4244456;27;19904;-66
2022/08/13 06:57:50;;;;;;;;;;;32.00;70.30;;;;;;4245480;27;19908;-65
2022/08/13 06:59:54;;;;;;;;;;;32.10;70.60;;;;;;4244330;27;20308;-66
2022/08/13 07:01:57;;;;;;;;;;;32.00;70.30;;;;;;4245302;27;19912;-69
2022/08/13 07:03:58;;;;;;;;;;;31.10;71.10;;;;;;4244164;27;19908;-69
2022/08/13 07:05:59;;;;;;;;;;;29.40;73.90;;;;;;4245795;27;19964;-64
2022/08/13 07:08:02;;;;;;;;;;;28.10;76.60;;;;;;4245919;27;20423;-67
2022/08/13 07:10:03;;;;;;;;;;;27.80;78.60;;;;;;4244645;27;19987;-64
2022/08/13 07:12:04;;;;;;;;;;;27.10;79.80;;;;;;4245320;27;20351;-70
2022/08/13 07:14:06;;;;;;;;;;;26.60;81.00;;;;;;4245277;27;20030;-65
2022/08/13 07:16:10;;;;;;;;;;;26.30;81.80;;;;;;4244528;27;19903;-67
2022/08/13 07:18:11;;;;;;;;;;;26.70;82.30;;;;;;4244574;27;19960;-66
2022/08/13 07:20:12;;;;;;;;;;;26.80;81.00;;;;;;4244908;27;19907;-67
2022/08/13 07:22:13;;;;;;;;;;;27.10;80.60;;;;;;4244105;27;19945;-67
2022/08/13 07:24:14;;;;;;;;;;;27.40;80.00;;;;;;4245526;27;20244;-63
2022/08/13 07:26:19;;;;;;;;;;;27.20;79.90;;;;;;4220117;27;19958;-61
2022/08/13 07:28:23;;;;;;;;;;;26.90;80.90;;;;;;4210719;28;20309;-65
2022/08/13 07:30:24;;;;;;;;;;;26.40;82.70;;;;;;4211392;28;19904;-66
2022/08/13 07:32:27;;;;;;;;;;;26.30;82.90;;;;;;4227104;28;19907;-66
2022/08/13 07:34:31;;;;;;;;;;;26.30;83.00;;;;;;4227260;27;19915;-65
2022/08/13 07:36:36;;;;;;;;;;;26.20;82.70;;;;;;4228672;28;19976;-66
2022/08/13 07:38:36;;;;;;;;;;;26.30;84.30;;;;;;4227357;28;19912;-66
2022/08/13 07:40:38;;;;;;;;;;;26.40;84.80;;;;;;4228203;27;19903;-60
2022/08/13 07:42:40;;;;;;;;;;;26.00;86.10;;;;;;4227268;28;19908;-61
2022/08/13 07:44:41;;;;;;;;;;;25.80;86.30;;;;;;4228081;28;19919;-62
2022/08/13 07:46:42;;;;;;;;;;;25.80;86.50;;;;;;4226815;28;19931;-62
2022/08/13 07:48:43;;;;;;;;;;;25.90;85.40;;;;;;4227495;28;19907;-66
2022/08/13 07:50:45;;;;;;;;;;;26.10;86.30;;;;;;4225753;28;19907;-61
2022/08/13 07:52:52;;;;;;;;;;;25.80;87.00;;;;;;4225585;28;19912;-62
2022/08/13 07:54:54;;;;;;;;;;;25.60;87.90;;;;;;4226089;28;19904;-62
2022/08/13 07:56:56;;;;;;;;;;;25.60;88.00;;;;;;4225795;28;19907;-62
2022/08/13 07:59:00;;;;;;;;;;;25.70;88.10;;;;;;4228011;28;19972;-62
2022/08/13 08:01:02;;;;;;;;;;;26.10;88.00;;;;;;4226800;28;19907;-63
2022/08/13 08:03:03;;;;;;;;;;;26.40;87.00;;;;;;4228054;28;19908;-64
2022/08/13 08:05:12;;;;;;;;;;;26.50;86.20;;;;;;4226422;28;20045;-62
2022/08/13 08:07:14;;;;;;;;;;;26.30;87.10;;;;;;4225840;28;19934;-62
2022/08/13 08:09:22;;;;;;;;;;;26.30;87.00;;;;;;4226922;28;19907;-62
2022/08/13 08:13:43;;;;;;;;;;;26.40;87.80;;;;;;4227213;28;19949;-62
2022/08/13 08:15:44;;;;;;;;;;;26.20;88.00;;;;;;4228003;28;19904;-64
2022/08/13 08:17:45;;;;;;;;;;;26.30;88.40;;;;;;4227044;28;20252;-62
2022/08/13 08:19:50;;;;;;;;;;;26.20;88.70;;;;;;4228160;28;19969;-63
2022/08/13 08:21:52;;;;;;;;;;;26.10;89.00;;;;;;4227692;28;20569;-62
2022/08/13 08:23:56;;;;;;;;;;;26.00;89.20;;;;;;4231493;28;19904;-63
2022/08/13 08:26:00;;;;;;;;;;;26.10;89.50;;;;;;4230170;28;19916;-63
2022/08/13 08:28:01;;;;;;;;;;;26.20;89.60;;;;;;4231082;28;19912;-65
2022/08/13 08:30:02;;;;;;;;;;;26.20;89.50;;;;;;4230168;28;19940;-62
2022/08/13 08:32:08;;;;;;;;;;;26.40;89.60;;;;;;4229435;28;19993;-61
2022/08/13 08:34:09;;;;;;;;;;;26.40;89.60;;;;;;4230357;28;19931;-62
2022/08/13 08:36:10;;;;;;;;;;;26.40;89.70;;;;;;4230296;28;19907;-63
2022/08/13 08:42:53;;;;;;;;;;;26.70;89.40;;;;;;4230052;28;19996;-62
2022/08/13 08:44:54;;;;;;;;;;;26.60;89.50;;;;;;4230133;28;19911;-62
2022/08/13 08:46:56;;;;;;;;;;;26.50;88.50;;;;;;4230215;28;19911;-61
2022/08/13 08:48:57;;;;;;;;;;;26.40;89.80;;;;;;4229729;28;19912;-63
2022/08/13 08:51:00;;;;;;;;;;;26.00;90.10;;;;;;4230516;28;19907;-63
2022/08/13 08:53:19;;;;;;;;;;;25.80;90.10;;;;;;4229759;28;20252;-62
2022/08/13 08:55:20;;;;;;;;;;;25.60;90.50;;;;;;4230599;28;19933;-62
2022/08/13 08:57:21;;;;;;;;;;;25.60;90.70;;;;;;4229122;28;19904;-62
2022/08/13 08:59:23;;;;;;;;;;;25.50;91.10;;;;;;4230944;28;19988;-62
2022/08/13 09:01:25;;;;;;;;;;;25.50;91.10;;;;;;4228769;28;19903;-63
2022/08/13 09:03:27;;;;;;;;;;;25.60;91.00;;;;;;4230498;28;19903;-62
2022/08/13 09:05:28;;;;;;;;;;;25.80;90.50;;;;;;4229559;28;19915;-62
2022/08/13 09:07:29;;;;;;;;;;;25.90;90.40;;;;;;4230458;28;20364;-62
2022/08/13 09:09:30;;;;;;;;;;;26.10;90.40;;;;;;4229294;28;19933;-62
2022/08/13 09:11:34;;;;;;;;;;;26.20;90.00;;;;;;4230670;28;19903;-62
2022/08/13 09:13:35;;;;;;;;;;;26.20;90.20;;;;;;4227569;28;20293;-62
2022/08/13 09:15:39;;;;;;;;;;;26.60;90.10;;;;;;4230422;28;20359;-61
2022/08/13 09:17:40;;;;;;;;;;;27.00;90.30;;;;;;4229224;28;20323;-62
2022/08/13 09:19:41;;;;;;;;;;;27.20;89.50;;;;;;4229850;27;20371;-63
2022/08/13 09:21:43;;;;;;;;;;;27.20;88.30;;;;;;4229318;28;19916;-62
2022/08/13 09:23:45;;;;;;;;;;;27.30;88.40;;;;;;4229625;28;19944;-64
2022/08/13 09:25:51;;;;;;;;;;;27.40;88.60;;;;;;4229594;28;19912;-63
2022/08/13 09:27:53;;;;;;;;;;;27.60;88.50;;;;;;4229326;28;19961;-63
2022/08/13 09:29:54;;;;;;;;;;;27.60;87.80;;;;;;4230049;28;19940;-63
2022/08/13 09:31:57;;;;;;;;;;;27.60;87.70;;;;;;4228942;28;20252;-63
2022/08/13 09:33:58;;;;;;;;;;;27.50;87.50;;;;;;4229968;28;20359;-63
2022/08/13 09:35:58;;;;;;;;;;;27.40;87.10;;;;;;4228512;28;19908;-61
2022/08/13 09:38:00;;;;;;;;;;;27.40;87.00;;;;;;4229270;28;19903;-62
2022/08/13 09:40:04;;;;;;;;;;;27.30;86.60;;;;;;4228774;28;19949;-61
2022/08/13 09:42:12;;;;;;;;;;;27.10;86.60;;;;;;4230605;28;19957;-66
2022/08/13 09:44:14;;;;;;;;;;;27.00;87.20;;;;;;4228881;28;19903;-62
2022/08/13 09:46:16;;;;;;;;;;;27.00;88.00;;;;;;4229897;28;19981;-61
2022/08/13 09:48:17;;;;;;;;;;;27.00;89.20;;;;;;4228203;28;20641;-63
2022/08/13 09:50:21;;;;;;;;;;;27.00;88.10;;;;;;4229354;28;19904;-62
2022/08/13 09:52:22;;;;;;;;;;;27.10;87.80;;;;;;4228179;28;20325;-62
2022/08/13 09:54:23;;;;;;;;;;;27.20;87.00;;;;;;4228831;28;19903;-63
2022/08/13 09:56:24;;;;;;;;;;;27.30;86.40;;;;;;4229115;28;19914;-66
2022/08/13 09:58:25;;;;;;;;;;;27.30;85.90;;;;;;4228951;28;19908;-62
2022/08/13 10:00:27;;;;;;;;;;;27.40;86.30;;;;;;4228725;28;20313;-62
2022/08/13 10:02:31;;;;;;;;;;;27.40;84.70;;;;;;4229709;28;20234;-62
2022/08/13 10:04:32;;;;;;;;;;;27.50;85.30;;;;;;4229201;28;20054;-63
2022/08/13 10:06:33;;;;;;;;;;;27.50;85.20;;;;;;4228061;28;19920;-63
2022/08/13 10:08:34;;;;;;;;;;;27.50;85.80;;;;;;4229728;28;20316;-62
2022/08/13 10:10:35;;;;;;;;;;;27.40;85.80;;;;;;4228568;28;20313;-65
2022/08/13 10:12:37;;;;;;;;;;;27.40;85.00;;;;;;4230185;28;19916;-62
2022/08/13 10:14:37;;;;;;;;;;;27.50;85.20;;;;;;4228350;28;19949;-62
2022/08/13 10:16:38;;;;;;;;;;;27.80;84.70;;;;;;4229478;28;20313;-62
2022/08/13 10:18:41;;;;;;;;;;;28.00;84.10;;;;;;4228494;28;19907;-62
2022/08/13 10:20:45;;;;;;;;;;;28.10;83.80;;;;;;4229654;28;19903;-62
2022/08/13 10:22:47;;;;;;;;;;;28.00;83.10;;;;;;4227923;28;20018;-65
2022/08/13 10:24:48;;;;;;;;;;;27.90;83.30;;;;;;4229200;28;19904;-64
2022/08/13 10:26:49;;;;;;;;;;;27.80;82.60;;;;;;4226643;28;19919;-62
2022/08/13 10:28:50;;;;;;;;;;;27.90;83.20;;;;;;4228637;28;19961;-64
2022/08/13 10:30:51;;;;;;;;;;;28.00;83.90;;;;;;4228971;28;19972;-68
2022/08/13 10:32:55;;;;;;;;;;;28.20;82.90;;;;;;4229179;28;19907;-67
2022/08/13 10:35:00;;;;;;;;;;;28.30;81.90;;;;;;4229675;28;20459;-69
2022/08/13 10:37:03;;;;;;;;;;;28.40;82.60;;;;;;4228292;28;19956;-69
2022/08/13 10:39:05;;;;;;;;;;;28.40;80.80;;;;;;4229789;28;19908;-71
2022/08/13 10:41:07;;;;;;;;;;;28.40;82.00;;;;;;4228420;28;19904;-62
2022/08/13 10:43:09;;;;;;;;;;;28.40;82.50;;;;;;4228845;28;19912;-63
2022/08/13 10:45:12;;;;;;;;;;;28.50;79.90;;;;;;4227063;28;19907;-63
2022/08/13 10:47:13;;;;;;;;;;;28.40;79.80;;;;;;4228657;28;19908;-64
2022/08/13 10:49:14;;;;;;;;;;;28.50;79.80;;;;;;4227296;28;20317;-63
2022/08/13 10:51:15;;;;;;;;;;;28.60;79.40;;;;;;4228542;28;19957;-63
2022/08/13 10:53:55;;;;;;;;;;;28.60;79.10;;;;;;4227539;28;19918;-63
2022/08/13 10:55:36;;;;;;;;;;;28.50;78.80;;;;;;4228856;28;19968;-62
2022/08/13 10:57:39;;;;;;;;;;;28.30;79.40;;;;;;4227802;28;19954;-63
2022/08/13 10:59:41;;;;;;;;;;;28.20;79.20;;;;;;4228658;28;19907;-63
2022/08/13 11:01:42;;;;;;;;;;;28.20;79.30;;;;;;4227612;28;21020;-63
2022/08/13 11:03:44;;;;;;;;;;;28.40;79.90;;;;;;4228474;28;19930;-63
2022/08/13 11:05:47;;;;;;;;;;;28.80;79.00;;;;;;4227790;28;20345;-63
2022/08/13 11:07:49;;;;;;;;;;;29.10;78.00;;;;;;4228016;28;19903;-64
2022/08/13 11:09:50;;;;;;;;;;;29.30;77.60;;;;;;4227933;28;20240;-64
2022/08/13 11:11:51;;;;;;;;;;;29.40;76.20;;;;;;4226546;28;19948;-64
2022/08/13 11:13:52;;;;;;;;;;;29.40;75.60;;;;;;4228293;28;20351;-64
2022/08/13 11:15:53;;;;;;;;;;;29.20;77.40;;;;;;4227464;28;19956;-65
2022/08/13 11:17:54;;;;;;;;;;;29.10;76.10;;;;;;4228783;28;20320;-64
2022/08/13 11:19:56;;;;;;;;;;;29.00;74.70;;;;;;4227601;28;19956;-63
2022/08/13 11:21:57;;;;;;;;;;;29.10;75.20;;;;;;4228703;28;19961;-65
2022/08/13 11:23:58;;;;;;;;;;;29.20;75.20;;;;;;4227396;28;20386;-65
2022/08/13 11:25:59;;;;;;;;;;;29.20;72.10;;;;;;4228604;28;20363;-65
2022/08/13 11:27:59;;;;;;;;;;;29.30;76.20;;;;;;4227499;28;19908;-66
2022/08/13 11:30:00;;;;;;;;;;;29.30;76.70;;;;;;4228730;28;19969;-65
2022/08/13 11:32:01;;;;;;;;;;;29.30;75.90;;;;;;4227637;28;19904;-65
2022/08/13 11:34:03;;;;;;;;;;;29.10;74.90;;;;;;4228390;28;19912;-66
2022/08/13 11:36:04;;;;;;;;;;;29.00;75.70;;;;;;4227393;28;20420;-68
2022/08/13 11:38:06;;;;;;;;;;;29.00;74.80;;;;;;4228341;28;19908;-68
2022/08/13 11:40:07;;;;;;;;;;;29.00;74.60;;;;;;4228313;28;19900;-68
2022/08/13 11:42:08;;;;;;;;;;;29.00;74.30;;;;;;4228334;28;19949;-65
2022/08/13 11:44:09;;;;;;;;;;;28.90;74.80;;;;;;4227979;28;19926;-66
2022/08/13 11:46:10;;;;;;;;;;;28.80;74.30;;;;;;4227156;28;20010;-65
2022/08/13 11:48:11;;;;;;;;;;;28.80;73.50;;;;;;4228440;28;19911;-65
2022/08/13 11:50:12;;;;;;;;;;;28.80;72.60;;;;;;4226875;28;19908;-65
2022/08/13 11:52:13;;;;;;;;;;;28.70;74.10;;;;;;4228220;28;20320;-65
2022/08/13 11:54:14;;;;;;;;;;;28.70;72.50;;;;;;4227224;28;19904;-65
2022/08/13 11:56:15;;;;;;;;;;;28.80;73.00;;;;;;4228569;28;19908;-65
2022/08/13 11:58:16;;;;;;;;;;;28.90;73.20;;;;;;4230955;28;20320;-65
2022/08/13 12:00:17;;;;;;;;;;;28.90;71.00;;;;;;4231851;28;20328;-65
2022/08/13 12:02:18;;;;;;;;;;;28.80;70.90;;;;;;4230675;28;19949;-65
2022/08/13 12:04:19;;;;;;;;;;;28.80;72.40;;;;;;4230499;28;20424;-67
2022/08/13 12:06:20;;;;;;;;;;;28.80;72.50;;;;;;4230215;28;19911;-65
2022/08/13 12:08:21;;;;;;;;;;;28.80;70.40;;;;;;4230414;28;19904;-65
2022/08/13 12:10:23;;;;;;;;;;;28.90;71.80;;;;;;4230406;28;19903;-68
2022/08/13 12:12:24;;;;;;;;;;;28.90;70.20;;;;;;4230645;28;19983;-68